createdAt,value
2022-11-26T00:00:14.750Z,244.30
2022-11-26T00:02:42.077Z,290.20
2022-11-26T00:05:13.500Z,329.87
2022-11-26T00:07:42.572Z,342.60
2022-11-26T00:10:20.059Z,237.37
2022-11-26T00:12:47.761Z,292.37
2022-11-26T00:15:34.668Z,329.70
2022-11-26T00:18:01.672Z,303.23
2022-11-26T00:20:31.421Z,280.00
2022-11-26T00:23:02.582Z,273.07
2022-11-26T00:25:59.462Z,269.90
2022-11-26T00:28:36.418Z,259.13
2022-11-26T00:31:06.379Z,267.07
2022-11-26T00:33:33.774Z,245.13
2022-11-26T00:36:14.070Z,269.40
2022-11-26T00:38:41.265Z,278.47
2022-11-26T00:41:22.595Z,250.33
2022-11-26T00:43:49.912Z,264.87
2022-11-26T00:46:19.510Z,281.73
2022-11-26T00:48:46.666Z,264.10
2022-11-26T00:51:18.185Z,280.57
2022-11-26T00:53:46.545Z,275.87
2022-11-26T00:56:16.218Z,278.07
2022-11-26T00:58:43.233Z,240.23
2022-11-26T01:01:13.187Z,209.90
2022-11-26T01:03:42.952Z,218.17
2022-11-26T01:06:34.203Z,220.97
2022-11-26T01:09:02.005Z,206.43
2022-11-26T01:11:29.113Z,214.63
2022-11-26T01:13:56.551Z,188.43
2022-11-26T01:16:29.547Z,205.47
2022-11-26T01:18:58.984Z,180.60
2022-11-26T01:21:28.794Z,208.57
2022-11-26T01:23:56.044Z,208.23
2022-11-26T01:26:27.655Z,214.53
2022-11-26T01:28:55.577Z,184.93
2022-11-26T01:31:25.656Z,217.63
2022-11-26T01:33:53.089Z,255.73
2022-11-26T01:36:40.744Z,243.47
2022-11-26T01:39:21.377Z,203.47
2022-11-26T01:42:28.156Z,244.73
2022-11-26T01:44:57.282Z,231.50
2022-11-26T01:47:28.581Z,201.80
2022-11-26T01:50:35.336Z,229.20
2022-11-26T01:53:33.080Z,222.93
2022-11-26T01:56:05.453Z,234.07
2022-11-26T01:58:39.878Z,237.27
2022-11-26T02:01:07.515Z,237.77
2022-11-26T02:03:43.160Z,204.47
2022-11-26T02:06:19.555Z,193.57
2022-11-26T02:08:47.189Z,224.63
2022-11-26T02:11:19.333Z,217.93
2022-11-26T02:13:51.986Z,215.87
2022-11-26T02:16:59.130Z,213.27
2022-11-26T02:20:05.982Z,212.80
2022-11-26T02:23:12.753Z,205.43
2022-11-26T02:26:19.530Z,203.33
2022-11-26T02:29:26.343Z,186.33
2022-11-26T02:32:14.128Z,182.47
2022-11-26T02:35:04.713Z,182.67
2022-11-26T02:37:39.758Z,193.37
2022-11-26T02:40:09.119Z,175.98
2022-11-26T02:42:36.977Z,169.67
2022-11-26T02:45:26.648Z,163.27
2022-11-26T02:47:55.953Z,176.80
2022-11-26T02:50:28.416Z,178.70
2022-11-26T02:52:58.377Z,199.27
2022-11-26T02:55:31.666Z,210.30
2022-11-26T02:57:59.210Z,220.23
2022-11-26T03:00:26.514Z,228.53
2022-11-26T03:03:04.038Z,189.13
2022-11-26T03:05:35.137Z,168.83
2022-11-26T03:08:04.830Z,173.37
2022-11-26T03:10:32.490Z,180.83
2022-11-26T03:12:59.936Z,156.40
2022-11-26T03:15:30.031Z,180.33
2022-11-26T03:17:57.212Z,197.13
2022-11-26T03:20:24.522Z,169.10
2022-11-26T03:22:54.450Z,164.97
2022-11-26T03:25:21.528Z,180.57
2022-11-26T03:27:48.511Z,159.83
2022-11-26T03:30:15.749Z,153.63
2022-11-26T03:32:42.941Z,157.90
2022-11-26T03:35:12.852Z,160.50
2022-11-26T03:37:40.234Z,133.50
2022-11-26T03:40:11.026Z,149.80
2022-11-26T03:42:38.204Z,153.13
2022-11-26T03:45:06.336Z,162.85
2022-11-26T03:47:36.422Z,160.87
2022-11-26T03:50:04.347Z,151.93
2022-11-26T03:52:31.445Z,132.47
2022-11-26T03:55:00.733Z,154.50
2022-11-26T03:57:27.810Z,145.63
2022-11-26T03:59:54.855Z,137.67
2022-11-26T04:02:24.796Z,136.50
2022-11-26T04:04:55.073Z,138.17
2022-11-26T04:07:22.229Z,146.27
2022-11-26T04:09:49.387Z,149.60
2022-11-26T04:12:16.504Z,140.80
2022-11-26T04:14:43.582Z,144.00
2022-11-26T04:17:10.816Z,133.97
2022-11-26T04:19:38.021Z,137.80
2022-11-26T04:22:05.086Z,148.20
2022-11-26T04:24:32.231Z,116.93
2022-11-26T04:27:02.277Z,104.27
2022-11-26T04:29:29.483Z,109.17
2022-11-26T04:31:56.678Z,104.47
2022-11-26T04:34:26.283Z,109.47
2022-11-26T04:36:53.342Z,119.83
2022-11-26T04:39:20.505Z,100.47
2022-11-26T04:44:31.414Z,109.23
2022-11-26T04:47:01.560Z,109.27
2022-11-26T04:49:30.169Z,114.37
2022-11-26T04:51:57.476Z,105.18
2022-11-26T04:54:24.630Z,109.67
2022-11-26T04:56:51.742Z,97.27
2022-11-26T04:59:18.897Z,99.00
2022-11-26T05:01:49.121Z,104.40
2022-11-26T05:04:17.571Z,111.23
2022-11-26T05:06:48.738Z,101.83
2022-11-26T05:09:46.788Z,117.20
2022-11-26T05:12:32.852Z,105.23
2022-11-26T05:15:16.531Z,98.33
2022-11-26T05:17:47.709Z,89.33
2022-11-26T05:20:28.740Z,87.07
2022-11-26T05:23:07.536Z,89.67
2022-11-26T05:25:47.810Z,76.77
2022-11-26T05:28:18.269Z,70.50
2022-11-26T05:30:45.494Z,85.87
2022-11-26T05:33:39.399Z,85.90
2022-11-26T05:36:12.729Z,72.10
2022-11-26T05:38:57.568Z,67.57
2022-11-26T05:41:36.726Z,72.53
2022-11-26T05:44:21.690Z,85.80
2022-11-26T05:47:20.628Z,75.03
2022-11-26T05:58:32.392Z,71.70
2022-11-26T06:04:59.330Z,72.70
2022-11-26T06:07:32.704Z,63.27
2022-11-26T06:10:15.392Z,64.63
2022-11-26T06:13:01.607Z,66.20
2022-11-26T06:15:33.004Z,57.30
2022-11-26T06:18:05.936Z,53.20
2022-11-26T06:21:09.425Z,53.67
2022-11-26T06:23:42.403Z,49.03
2022-11-26T06:26:33.618Z,54.23
2022-11-26T06:29:05.128Z,55.23
2022-11-26T06:31:36.298Z,46.53
2022-11-26T06:34:04.851Z,52.37
2022-11-26T06:36:42.312Z,53.37
2022-11-26T06:39:15.352Z,46.73
2022-11-26T06:41:51.189Z,55.13
2022-11-26T06:44:20.446Z,50.60
2022-11-26T06:47:08.068Z,51.00
2022-11-26T06:49:35.150Z,53.40
2022-11-26T06:52:15.245Z,51.83
2022-11-26T06:54:51.993Z,51.77
2022-11-26T06:57:21.756Z,59.53
2022-11-26T06:59:49.008Z,54.00
2022-11-26T07:02:16.245Z,55.60
2022-11-26T07:04:45.861Z,48.53
2022-11-26T07:07:16.773Z,49.40
2022-11-26T07:09:55.662Z,46.07
2022-11-26T07:12:27.333Z,45.10
2022-11-26T07:14:57.271Z,49.60
2022-11-26T07:17:30.910Z,53.13
2022-11-26T07:20:04.929Z,51.60
2022-11-26T07:28:13.330Z,53.97
2022-11-26T07:30:49.221Z,50.73
2022-11-26T07:39:25.764Z,59.20
2022-11-26T07:45:02.351Z,60.77
2022-11-26T07:50:53.006Z,47.63
2022-11-26T07:53:25.976Z,50.20
2022-11-26T07:56:11.252Z,55.73
2022-11-26T07:58:52.950Z,46.35
2022-11-26T08:01:33.731Z,46.37
2022-11-26T08:04:08.449Z,52.30
2022-11-26T08:06:58.873Z,51.35
2022-11-26T08:09:35.850Z,52.87
2022-11-26T08:12:16.055Z,52.10
2022-11-26T08:15:13.015Z,47.80
2022-11-26T08:17:50.617Z,46.50
2022-11-26T08:20:29.376Z,45.27
2022-11-26T08:23:05.656Z,45.20
2022-11-26T08:29:45.894Z,39.90
2022-11-26T08:32:33.169Z,44.15
2022-11-26T08:36:28.461Z,43.63
2022-11-26T08:39:00.320Z,45.73
2022-11-26T08:47:17.745Z,45.67
2022-11-26T08:49:44.805Z,60.07
2022-11-26T08:53:03.365Z,60.33
2022-11-26T09:03:03.447Z,54.85
2022-11-26T09:09:28.952Z,53.13
2022-11-26T09:22:00.753Z,40.47
2022-11-26T09:24:31.974Z,46.53
2022-11-26T09:30:05.719Z,53.97
2022-11-26T09:32:36.477Z,42.60
2022-11-26T09:35:13.836Z,50.33
2022-11-26T09:37:53.994Z,45.00
2022-11-26T09:41:10.856Z,48.77
2022-11-26T09:50:52.634Z,48.30
2022-11-26T09:53:43.844Z,42.83
2022-11-26T09:56:33.950Z,42.83
2022-11-26T09:59:51.517Z,45.37
2022-11-26T10:04:30.208Z,44.70
2022-11-26T10:09:39.306Z,42.40
2022-11-26T10:13:17.966Z,40.73
2022-11-26T10:22:00.336Z,36.33
2022-11-26T10:24:36.624Z,37.15
2022-11-26T10:27:27.115Z,37.70
2022-11-26T10:30:00.418Z,36.37
2022-11-26T10:32:40.333Z,38.47
2022-11-26T10:35:18.804Z,30.53
2022-11-26T10:37:49.455Z,33.50
2022-11-26T10:40:48.619Z,36.77
2022-11-26T10:43:30.742Z,34.93
2022-11-26T10:46:28.114Z,34.20
2022-11-26T10:49:18.249Z,35.07
2022-11-26T10:51:54.588Z,40.20
2022-11-26T10:57:39.269Z,40.60
2022-11-26T11:00:52.469Z,36.33
2022-11-26T11:04:08.500Z,35.90
2022-11-26T11:06:45.660Z,40.13
2022-11-26T11:15:13.133Z,37.60
2022-11-26T11:20:01.216Z,35.10
2022-11-26T11:22:56.440Z,33.87
2022-11-26T11:34:49.283Z,35.13
2022-11-26T11:37:59.544Z,37.97
2022-11-26T11:40:30.611Z,40.43
2022-11-26T11:43:23.832Z,42.60
2022-11-26T11:46:41.472Z,40.13
2022-11-26T11:49:48.302Z,47.20
2022-11-26T11:52:55.084Z,43.93
2022-11-26T12:04:00.812Z,40.27
2022-11-26T12:06:54.661Z,38.67
2022-11-26T12:09:32.579Z,41.07
2022-11-26T12:12:22.965Z,39.23
2022-11-26T12:15:15.352Z,37.50
2022-11-26T12:17:50.035Z,38.40
2022-11-26T12:20:28.370Z,47.88
2022-11-26T12:23:35.058Z,40.17
2022-11-26T12:28:46.954Z,44.97
2022-11-26T12:31:44.264Z,48.37
2022-11-26T12:34:34.618Z,46.50
2022-11-26T12:37:05.499Z,48.97
2022-11-26T12:40:12.258Z,45.23
2022-11-26T12:43:19.053Z,40.53
2022-11-26T12:46:08.812Z,43.93
2022-11-26T12:49:00.647Z,48.50
2022-11-26T12:52:07.391Z,49.60
2022-11-26T12:57:25.526Z,42.83
2022-11-26T12:59:58.891Z,54.63
2022-11-26T13:02:30.250Z,48.10
2022-11-26T13:04:58.997Z,43.67
2022-11-26T13:08:05.753Z,47.33
2022-11-26T13:11:12.550Z,49.07
2022-11-26T13:14:07.830Z,46.17
2022-11-26T13:16:58.141Z,50.10
2022-11-26T13:20:04.915Z,54.00
2022-11-26T13:23:11.657Z,48.67
2022-11-26T13:26:18.470Z,48.70
2022-11-26T13:29:15.889Z,47.03
2022-11-26T13:32:14.449Z,52.00
2022-11-26T13:35:16.573Z,41.90
2022-11-26T13:38:23.300Z,46.67
2022-11-26T13:49:26.906Z,53.60
2022-11-26T13:52:17.263Z,57.20
2022-11-26T13:54:57.343Z,54.33
2022-11-26T13:57:31.480Z,55.43
2022-11-26T13:59:59.944Z,52.97
2022-11-26T14:02:47.582Z,53.03
2022-11-26T14:05:16.723Z,143.17
2022-11-26T14:07:46.441Z,67.13
2022-11-26T14:10:53.198Z,69.23
2022-11-26T14:15:55.717Z,66.37
2022-11-26T14:19:03.129Z,74.50
2022-11-26T14:21:30.741Z,66.83
2022-11-26T14:24:01.118Z,68.37
2022-11-26T14:26:31.439Z,67.93
2022-11-26T14:29:17.696Z,62.53
2022-11-26T14:32:08.938Z,55.23
2022-11-26T14:34:43.429Z,68.53
2022-11-26T14:37:16.410Z,71.25
2022-11-26T14:39:43.738Z,69.20
2022-11-26T14:42:17.626Z,74.57
2022-11-26T14:44:44.970Z,77.40
2022-11-26T14:47:20.007Z,68.53
2022-11-26T14:49:54.454Z,71.03
2022-11-26T14:52:26.529Z,73.00
2022-11-26T14:54:56.597Z,86.33
2022-11-26T14:57:30.045Z,75.83
2022-11-26T15:00:36.795Z,82.33
2022-11-26T15:03:04.400Z,90.37
2022-11-26T15:05:34.181Z,101.23
2022-11-26T15:08:14.251Z,94.23
2022-11-26T15:11:07.238Z,84.93
2022-11-26T15:13:44.542Z,97.93
2022-11-26T15:16:34.031Z,94.97
2022-11-26T15:19:02.874Z,86.00
2022-11-26T15:21:30.046Z,87.03
2022-11-26T15:24:00.565Z,78.50
2022-11-26T15:26:33.300Z,83.33
2022-11-26T15:29:00.694Z,81.30
2022-11-26T15:31:43.722Z,104.80
2022-11-26T15:34:13.565Z,91.70
2022-11-26T15:36:40.691Z,91.57
2022-11-26T15:39:22.680Z,99.00
2022-11-26T15:41:50.339Z,83.27
2022-11-26T15:44:25.165Z,81.40
2022-11-26T15:46:55.030Z,101.00
2022-11-26T15:49:27.418Z,90.90
2022-11-26T15:52:00.229Z,88.57
2022-11-26T15:54:49.665Z,95.23
2022-11-26T15:57:26.929Z,88.37
2022-11-26T15:59:57.682Z,93.15
2022-11-26T16:02:27.836Z,88.73
2022-11-26T16:04:58.039Z,102.03
2022-11-26T16:07:27.830Z,99.07
2022-11-26T16:10:35.791Z,94.60
2022-11-26T16:13:20.666Z,112.53
2022-11-26T16:15:51.512Z,125.10
2022-11-26T16:18:22.753Z,121.77
2022-11-26T16:20:50.020Z,124.10
2022-11-26T16:23:28.352Z,127.73
2022-11-26T16:26:17.697Z,141.27
2022-11-26T16:28:46.413Z,175.83
2022-11-26T16:31:14.879Z,153.17
2022-11-26T16:33:42.569Z,183.07
2022-11-26T16:36:19.072Z,204.20
2022-11-26T16:38:46.331Z,174.67
2022-11-26T16:41:14.493Z,218.87
2022-11-26T16:43:41.771Z,184.47
2022-11-26T16:46:20.237Z,250.17
2022-11-26T16:48:48.169Z,182.43
2022-11-26T16:51:15.692Z,192.00
2022-11-26T16:53:43.430Z,184.07
2022-11-26T16:56:22.321Z,260.97
2022-11-26T16:58:50.185Z,214.93
2022-11-26T17:01:17.303Z,256.70
2022-11-26T17:03:44.689Z,258.70
2022-11-26T17:06:15.875Z,233.83
2022-11-26T17:08:49.194Z,209.60
2022-11-26T17:11:17.210Z,186.63
2022-11-26T17:13:44.346Z,240.83
2022-11-26T17:16:15.048Z,227.50
2022-11-26T17:18:42.645Z,234.83
2022-11-26T17:21:10.005Z,215.70
2022-11-26T17:23:37.385Z,185.57
2022-11-26T17:26:15.842Z,185.90
2022-11-26T17:28:42.956Z,171.90
2022-11-26T17:31:10.106Z,168.00
2022-11-26T17:33:37.246Z,182.03
2022-11-26T17:36:10.151Z,159.17
2022-11-26T17:38:37.912Z,145.97
2022-11-26T17:41:06.523Z,143.20
2022-11-26T17:43:33.562Z,146.67
2022-11-26T17:46:02.360Z,142.60
2022-11-26T17:48:29.530Z,131.77
2022-11-26T17:50:56.599Z,127.30
2022-11-26T17:53:23.746Z,137.00
2022-11-26T17:55:50.820Z,127.40
2022-11-26T17:58:17.884Z,145.73
2022-11-26T18:00:44.927Z,129.13
2022-11-26T18:03:12.036Z,132.00
2022-11-26T18:05:42.013Z,122.50
2022-11-26T18:08:09.598Z,143.07
2022-11-26T18:10:40.690Z,146.17
2022-11-26T18:13:07.905Z,132.40
2022-11-26T18:15:34.872Z,141.57
2022-11-26T18:18:01.895Z,151.40
2022-11-26T18:20:29.347Z,149.93
2022-11-26T18:22:59.608Z,148.70
2022-11-26T18:25:27.635Z,154.50
2022-11-26T18:27:55.201Z,149.57
2022-11-26T18:30:22.358Z,149.23
2022-11-26T18:32:49.521Z,146.23
2022-11-26T18:35:17.303Z,150.73
2022-11-26T18:37:44.759Z,171.93
2022-11-26T18:40:14.676Z,179.63
2022-11-26T18:42:41.860Z,165.60
2022-11-26T18:45:11.887Z,140.57
2022-11-26T18:47:39.164Z,114.60
2022-11-26T18:50:07.338Z,160.03
2022-11-26T18:52:34.534Z,149.47
2022-11-26T18:55:04.868Z,162.03
2022-11-26T18:57:32.243Z,169.73
2022-11-26T18:59:59.249Z,159.43
2022-11-26T19:02:26.494Z,153.27
2022-11-26T19:04:53.766Z,143.37
2022-11-26T19:07:20.953Z,133.17
2022-11-26T19:09:49.349Z,141.33
2022-11-26T19:12:16.436Z,132.13
2022-11-26T19:14:43.560Z,152.83
2022-11-26T19:17:10.712Z,141.17
2022-11-26T19:19:38.487Z,136.27
2022-11-26T19:22:05.722Z,144.67
2022-11-26T19:24:32.840Z,127.23
2022-11-26T19:26:59.848Z,113.80
2022-11-26T19:29:26.960Z,113.23
2022-11-26T19:31:54.054Z,117.90
2022-11-26T19:34:21.210Z,115.20
2022-11-26T19:36:48.624Z,113.27
2022-11-26T19:39:16.749Z,129.87
2022-11-26T19:41:44.285Z,120.77
2022-11-26T19:44:11.354Z,127.33
2022-11-26T19:46:41.251Z,147.07
2022-11-26T19:49:11.161Z,136.43
2022-11-26T19:51:38.308Z,166.80
2022-11-26T19:54:05.455Z,147.97
2022-11-26T19:56:33.336Z,125.70
2022-11-26T19:59:02.239Z,121.27
2022-11-26T20:01:31.617Z,111.03
2022-11-26T20:04:02.069Z,116.83
2022-11-26T20:06:30.603Z,105.63
2022-11-26T20:08:59.366Z,127.47
2022-11-26T20:11:27.510Z,127.20
2022-11-26T20:13:54.805Z,120.03
2022-11-26T20:16:25.074Z,128.37
2022-11-26T20:18:52.965Z,122.10
2022-11-26T20:21:23.429Z,124.70
2022-11-26T20:23:51.282Z,124.00
2022-11-26T20:26:22.065Z,125.17
2022-11-26T20:28:49.854Z,120.40
2022-11-26T20:31:23.140Z,104.97
2022-11-26T20:33:52.956Z,115.47
2022-11-26T20:36:22.953Z,113.53
2022-11-26T20:38:54.746Z,139.93
2022-11-26T20:41:22.831Z,159.47
2022-11-26T20:43:56.510Z,130.20
2022-11-26T20:46:25.564Z,137.30
2022-11-26T20:48:53.093Z,127.30
2022-11-26T20:51:22.016Z,117.50
2022-11-26T20:53:50.738Z,110.33
2022-11-26T20:56:19.869Z,101.63
2022-11-26T20:58:47.347Z,91.43
2022-11-26T21:01:39.119Z,97.10
2022-11-26T21:04:07.006Z,90.33
2022-11-26T21:06:34.939Z,88.20
2022-11-26T21:09:04.651Z,77.70
2022-11-26T21:11:31.795Z,74.13
2022-11-26T21:14:00.138Z,63.97
2022-11-26T21:16:58.853Z,63.17
2022-11-26T21:19:26.143Z,67.97
2022-11-26T21:21:53.178Z,66.83
2022-11-26T21:24:20.591Z,63.60
2022-11-26T21:26:47.605Z,55.90
2022-11-26T21:29:14.816Z,53.17
2022-11-26T21:31:41.985Z,50.50
2022-11-26T21:34:10.976Z,54.33
2022-11-26T21:36:38.164Z,53.20
2022-11-26T21:39:05.798Z,54.80
2022-11-26T21:41:33.828Z,56.73
2022-11-26T21:44:03.953Z,58.47
2022-11-26T21:46:37.602Z,58.77
2022-11-26T21:49:06.085Z,60.23
2022-11-26T21:51:33.114Z,59.77
2022-11-26T21:54:00.188Z,54.07
2022-11-26T21:56:29.180Z,56.53
2022-11-26T21:58:57.571Z,54.47
2022-11-26T22:01:45.913Z,61.43
2022-11-26T22:04:17.700Z,55.63
2022-11-26T22:06:46.307Z,59.40
2022-11-26T22:09:14.832Z,58.10
2022-11-26T22:11:43.933Z,58.33
2022-11-26T22:14:14.619Z,54.90
2022-11-26T22:16:42.163Z,60.00
2022-11-26T22:19:09.817Z,57.10
2022-11-26T22:21:39.892Z,57.17
2022-11-26T22:24:10.143Z,56.57
2022-11-26T22:26:37.321Z,50.17
2022-11-26T22:29:04.924Z,47.00
2022-11-26T22:31:35.042Z,46.93
2022-11-26T22:34:06.245Z,43.97
2022-11-26T22:36:33.980Z,42.50
2022-11-26T22:39:03.076Z,42.30
2022-11-26T22:41:30.261Z,46.10
2022-11-26T22:44:00.328Z,41.37
2022-11-26T22:46:27.869Z,48.77
2022-11-26T22:49:00.198Z,52.20
2022-11-26T22:51:29.552Z,49.27
2022-11-26T22:54:00.855Z,57.70
2022-11-26T22:56:28.994Z,51.10
2022-11-26T22:58:56.609Z,53.23
2022-11-26T23:01:43.596Z,61.43
2022-11-26T23:04:11.265Z,56.90
2022-11-26T23:06:39.055Z,59.97
2022-11-26T23:09:07.910Z,59.33
2022-11-26T23:11:38.104Z,54.53
2022-11-26T23:14:07.594Z,57.03
2022-11-26T23:16:36.482Z,63.67
2022-11-26T23:19:04.247Z,62.27
2022-11-26T23:21:34.775Z,67.07
2022-11-26T23:24:02.046Z,58.77
2022-11-26T23:26:31.911Z,70.63
2022-11-26T23:29:01.025Z,67.60
2022-11-26T23:31:30.482Z,59.60
2022-11-26T23:33:57.943Z,57.63
2022-11-26T23:36:26.458Z,64.97
2022-11-26T23:38:53.765Z,62.10
2022-11-26T23:41:20.941Z,63.30
2022-11-26T23:43:48.310Z,63.77
2022-11-26T23:46:21.117Z,66.30
2022-11-26T23:48:48.965Z,61.60
2022-11-26T23:51:21.948Z,63.50
2022-11-26T23:53:50.628Z,67.07
2022-11-26T23:56:24.110Z,65.97
2022-11-26T23:58:52.808Z,69.67
